Time;durP1;ratioP1;P1;durP2;ratioP2;P2;SDS_P1;SDS_P2;PMS_P1;PMS_P2;Temp;Humidity;BMP_temperature;BMP_pressure;BME280_temperature;BME280_humidity;BME280_pressure;Samples;Min_cycle;Max_cycle;Signal;HPM_P1;HPM_P2
2021/08/19 00:00:49;;;;;;;16.48;13.63;;;;;;;18.83;58.32;100541.09;5032345;28;20370;-92
2021/08/19 00:03:15;;;;;;;14.43;12.30;;;;;;;18.83;58.46;100536.59;5032157;28;20033;-93
2021/08/19 00:05:41;;;;;;;17.75;13.15;;;;;;;18.87;58.51;100538.97;5032010;28;20080;-93
2021/08/19 00:08:06;;;;;;;16.17;12.77;;;;;;;18.87;58.41;100538.97;5030652;28;20022;-92
2021/08/19 00:10:32;;;;;;;17.95;13.98;;;;;;;18.92;58.53;100539.34;5030862;28;20476;-92
2021/08/19 00:12:59;;;;;;;16.80;13.23;;;;;;;18.99;58.32;100540.38;5031919;28;20530;-92
2021/08/19 00:15:25;;;;;;;18.05;12.98;;;;;;;18.93;57.85;100533.84;5031899;28;20018;-92
2021/08/19 00:17:50;;;;;;;20.25;13.50;;;;;;;18.88;58.31;100530.84;5032106;28;20091;-92
2021/08/19 00:20:16;;;;;;;17.17;13.48;;;;;;;18.87;57.89;100534.47;5031890;28;20112;-92
2021/08/19 00:22:41;;;;;;;15.82;12.45;;;;;;;18.80;57.65;100525.47;5031828;28;20029;-93
2021/08/19 00:25:07;;;;;;;14.57;11.95;;;;;;;18.94;57.33;100516.09;5032092;28;20468;-92
2021/08/19 00:27:33;;;;;;;15.75;11.93;;;;;;;19.02;57.46;100519.63;5031862;28;20033;-93
2021/08/19 00:29:58;;;;;;;14.98;10.70;;;;;;;19.02;57.27;100518.81;5031779;28;20445;-92
2021/08/19 00:32:24;;;;;;;12.50;10.73;;;;;;;19.09;57.26;100519.00;5031697;28;20075;-93
2021/08/19 00:34:49;;;;;;;13.55;10.88;;;;;;;19.05;56.90;100512.31;5030318;28;20515;-92
2021/08/19 00:37:15;;;;;;;12.68;9.35;;;;;;;19.00;56.80;100516.28;5031589;28;20041;-92
2021/08/19 00:39:41;;;;;;;11.57;9.60;;;;;;;19.09;56.54;100521.66;5031648;28;20112;-92
2021/08/19 00:42:07;;;;;;;12.48;9.60;;;;;;;19.13;56.50;100512.38;5031900;28;20488;-93
2021/08/19 00:44:33;;;;;;;10.18;7.30;;;;;;;19.15;56.01;100510.38;5031512;28;20026;-91
2021/08/19 00:46:58;;;;;;;12.70;7.15;;;;;;;19.23;55.88;100510.41;5031909;28;20033;-93
2021/08/19 00:49:24;;;;;;;8.63;6.53;;;;;;;19.18;56.04;100513.56;5031697;28;20395;-92
2021/08/19 00:51:52;;;;;;;9.00;5.53;;;;;;;19.10;56.31;100521.50;5031614;28;20030;-93
2021/08/19 00:54:23;;;;;;;8.15;5.20;;;;;;;19.10;55.85;100516.19;5031482;28;20037;-92
2021/08/19 00:56:59;;;;;;;10.45;5.28;;;;;;;18.98;55.61;100515.59;5031749;28;20044;-93
2021/08/19 00:59:35;;;;;;;5.82;4.15;;;;;;;19.39;55.05;100518.50;5031491;28;20018;-94
2021/08/19 01:02:08;;;;;;;6.07;4.50;;;;;;;19.52;55.20;100511.91;5034436;28;20104;-93
2021/08/19 01:04:37;;;;;;;5.82;3.90;;;;;;;19.54;54.98;100515.25;5035325;28;20032;-92
2021/08/19 01:07:03;;;;;;;5.00;3.85;;;;;;;19.45;54.83;100521.50;5034009;28;20045;-92
2021/08/19 01:09:29;;;;;;;7.03;4.32;;;;;;;19.44;54.54;100509.22;5035689;28;20103;-92
2021/08/19 01:11:54;;;;;;;4.88;3.58;;;;;;;19.31;54.63;100509.63;5035328;28;20033;-92
2021/08/19 01:14:20;;;;;;;5.57;4.07;;;;;;;19.31;54.49;100515.81;5033946;28;20034;-93
2021/08/19 01:16:46;;;;;;;7.57;3.85;;;;;;;19.35;55.08;100516.31;5033700;28;20033;-93
2021/08/19 01:19:16;;;;;;;5.00;3.67;;;;;;;19.39;55.08;100507.00;5034113;28;20116;-93
2021/08/19 01:21:42;;;;;;;5.35;3.40;;;;;;;19.28;55.16;100504.66;5035081;28;20105;-92
2021/08/19 01:24:08;;;;;;;5.65;3.50;;;;;;;19.30;55.16;100511.47;5035001;28;20155;-92
2021/08/19 01:26:34;;;;;;;4.88;3.80;;;;;;;18.86;54.68;100511.53;5035083;28;20022;-92
2021/08/19 01:28:59;;;;;;;8.23;3.75;;;;;;;18.93;54.78;100498.44;5035162;28;20037;-92
2021/08/19 01:31:26;;;;;;;5.28;3.60;;;;;;;19.29;54.18;100509.78;5033701;28;20025;-91
2021/08/19 01:33:53;;;;;;;4.10;3.13;;;;;;;19.33;54.16;100504.97;5034756;28;20025;-92
2021/08/19 01:36:18;;;;;;;6.03;4.25;;;;;;;19.32;54.40;100508.66;5033390;28;20037;-93
2021/08/19 01:38:45;;;;;;;5.32;3.38;;;;;;;19.40;54.43;100506.03;5034811;28;20034;-93
2021/08/19 01:41:11;;;;;;;5.20;4.20;;;;;;;19.28;54.65;100500.16;5034904;28;20022;-93
2021/08/19 01:43:40;;;;;;;6.70;4.93;;;;;;;19.27;54.43;100495.81;5034720;28;20030;-93
2021/08/19 01:46:11;;;;;;;8.23;5.38;;;;;;;19.46;54.59;100501.91;5034639;28;20053;-93
2021/08/19 01:48:41;;;;;;;7.53;5.95;;;;;;;19.44;55.05;100498.56;5034650;28;20030;-92
2021/08/19 01:51:08;;;;;;;8.80;5.93;;;;;;;19.37;54.65;100507.19;5034739;28;20071;-93
2021/08/19 01:53:34;;;;;;;8.27;5.85;;;;;;;19.26;54.53;100503.97;5033129;28;20048;-93
2021/08/19 01:55:59;;;;;;;8.43;5.68;;;;;;;19.31;54.63;100498.97;5034566;28;20087;-92
2021/08/19 01:58:26;;;;;;;8.40;6.47;;;;;;;19.32;54.70;100493.50;5034288;28;20029;-92
2021/08/19 02:00:52;;;;;;;8.23;6.20;;;;;;;19.33;54.81;100500.50;5034245;28;20025;-92
2021/08/19 02:03:17;;;;;;;8.48;6.57;;;;;;;19.37;55.21;100499.19;5034300;28;20014;-92
2021/08/19 02:05:47;;;;;;;10.45;6.45;;;;;;;19.21;54.96;100493.78;5034238;28;20481;-93
2021/08/19 02:08:12;;;;;;;7.30;6.50;;;;;;;19.28;55.01;100499.31;5034457;28;20083;-93
2021/08/19 02:10:38;;;;;;;10.43;6.97;;;;;;;19.35;54.48;100498.53;5034264;28;20030;-92
2021/08/19 02:13:05;;;;;;;7.57;6.57;;;;;;;19.37;54.81;100493.03;5033016;28;20090;-93
2021/08/19 02:15:31;;;;;;;11.35;7.13;;;;;;;19.32;54.91;100492.69;5034173;28;20025;-92
2021/08/19 02:17:57;;;;;;;10.35;7.25;;;;;;;19.31;54.72;100502.50;5033743;28;20034;-91
2021/08/19 02:20:23;;;;;;;8.43;6.70;;;;;;;19.33;54.69;100497.00;5034097;28;20037;-92
2021/08/19 02:22:48;;;;;;;9.93;7.35;;;;;;;19.25;54.49;100491.63;5034061;28;20026;-93
2021/08/19 02:25:15;;;;;;;8.77;7.43;;;;;;;19.34;53.96;100485.38;5033995;28;20030;-91
2021/08/19 02:27:41;;;;;;;13.45;8.15;;;;;;;19.20;54.19;100484.13;5033964;28;20025;-93
2021/08/19 02:30:08;;;;;;;10.48;8.55;;;;;;;19.27;54.11;100479.81;5033723;28;20423;-91
2021/08/19 02:32:33;;;;;;;10.70;8.57;;;;;;;19.24;54.10;100474.84;5033880;28;20053;-92
2021/08/19 02:34:59;;;;;;;9.82;8.65;;;;;;;19.18;54.30;100478.13;5032435;28;20424;-93
2021/08/19 02:37:24;;;;;;;12.38;9.10;;;;;;;19.26;53.96;100478.16;5033683;28;20045;-92
2021/08/19 02:39:49;;;;;;;10.32;9.20;;;;;;;19.25;53.39;100481.81;5033692;28;20022;-92
2021/08/19 02:42:15;;;;;;;9.55;8.25;;;;;;;19.19;53.52;100480.66;5033521;28;20053;-92
2021/08/19 02:44:40;;;;;;;10.35;8.82;;;;;;;19.30;53.22;100473.38;5033289;28;20430;-92
2021/08/19 02:47:08;;;;;;;12.00;8.95;;;;;;;19.30;53.12;100481.34;5033566;28;20022;-93
2021/08/19 02:49:34;;;;;;;10.32;9.05;;;;;;;19.21;53.25;100476.00;5033519;28;20021;-93
2021/08/19 02:52:00;;;;;;;9.48;8.50;;;;;;;19.16;53.21;100470.31;5033467;28;20509;-93
2021/08/19 02:54:25;;;;;;;11.63;8.98;;;;;;;19.00;54.15;100473.72;5033310;28;20317;-92
2021/08/19 02:56:51;;;;;;;11.15;9.25;;;;;;;19.14;53.74;100474.13;5033593;28;20025;-92
2021/08/19 02:59:16;;;;;;;9.90;8.63;;;;;;;19.18;53.38;100480.81;5033338;28;20029;-92
2021/08/19 03:01:41;;;;;;;11.18;8.52;;;;;;;18.73;54.15;100479.16;5033222;28;20033;-92
2021/08/19 03:04:07;;;;;;;9.98;8.98;;;;;;;18.96;54.01;100475.03;5033018;28;20322;-93
2021/08/19 03:06:33;;;;;;;9.52;8.52;;;;;;;19.15;53.74;100475.78;5031901;28;20048;-92
2021/08/19 03:08:58;;;;;;;13.10;9.70;;;;;;;19.04;54.34;100468.91;5033234;28;20476;-93
2021/08/19 03:11:24;;;;;;;11.40;9.20;;;;;;;19.12;53.57;100471.63;5032996;28;20033;-92
2021/08/19 03:13:49;;;;;;;9.57;7.97;;;;;;;19.11;53.42;100471.75;5032932;28;20068;-92
2021/08/19 03:16:15;;;;;;;9.27;7.47;;;;;;;19.07;53.32;100462.44;5032902;28;20341;-92
2021/08/19 03:18:40;;;;;;;8.60;7.57;;;;;;;19.08;53.65;100461.47;5032962;28;20379;-92
2021/08/19 03:21:06;;;;;;;10.43;7.60;;;;;;;18.89;53.66;100460.66;5032836;28;20030;-92
2021/08/19 03:23:32;;;;;;;13.63;7.68;;;;;;;19.11;53.30;100461.94;5032636;28;20041;-92
2021/08/19 03:25:58;;;;;;;9.68;7.15;;;;;;;19.13;53.44;100464.47;5032727;28;20091;-92
2021/08/19 03:28:23;;;;;;;10.13;8.30;;;;;;;19.12;53.27;100468.97;5032655;28;20026;-92
2021/08/19 03:30:50;;;;;;;8.95;7.80;;;;;;;19.13;53.33;100453.81;5032724;28;20040;-92
2021/08/19 03:33:17;;;;;;;12.00;7.68;;;;;;;18.92;53.23;100447.06;5032708;28;20034;-92
2021/08/19 03:35:44;;;;;;;8.65;7.55;;;;;;;18.99;53.43;100456.06;5032434;28;20021;-92
2021/08/19 03:38:09;;;;;;;9.73;7.32;;;;;;;19.11;53.13;100458.47;5032583;28;20041;-93
2021/08/19 03:40:35;;;;;;;8.68;7.15;;;;;;;19.12;53.38;100455.66;5032501;28;20025;-91
2021/08/19 03:43:00;;;;;;;11.25;7.82;;;;;;;19.09;53.33;100460.44;5032462;28;20430;-91
2021/08/19 03:45:26;;;;;;;8.05;7.25;;;;;;;19.09;53.39;100452.47;5031212;28;20029;-91
2021/08/19 03:47:51;;;;;;;8.98;7.45;;;;;;;18.60;54.46;100456.47;5032492;28;20104;-93
2021/08/19 03:50:16;;;;;;;9.60;7.25;;;;;;;18.47;53.89;100452.53;5031291;28;20498;-93
2021/08/19 03:52:42;;;;;;;9.70;7.13;;;;;;;18.61;53.97;100454.63;5030995;28;20021;-92
2021/08/19 03:55:07;;;;;;;11.00;6.90;;;;;;;18.62;54.52;100456.28;5032317;28;20499;-92
2021/08/19 03:57:33;;;;;;;9.48;7.03;;;;;;;18.48;54.35;100456.84;5032101;28;20479;-92
2021/08/19 03:59:58;;;;;;;8.75;6.45;;;;;;;18.54;54.10;100448.25;5032191;28;20049;-92
2021/08/19 04:02:24;;;;;;;6.85;5.78;;;;;;;18.59;53.88;100438.84;5032265;28;20028;-93
2021/08/19 04:04:49;;;;;;;8.63;7.05;;;;;;;18.60;53.99;100451.16;5032210;28;20028;-91
2021/08/19 04:07:15;;;;;;;8.90;6.93;;;;;;;18.48;54.14;100444.41;5030871;28;20033;-92
2021/08/19 04:09:40;;;;;;;7.65;6.85;;;;;;;18.34;55.19;100444.94;5030747;28;20036;-93
2021/08/19 04:12:06;;;;;;;8.02;6.75;;;;;;;18.38;55.51;100443.66;5032010;28;20104;-92
2021/08/19 04:14:31;;;;;;;7.30;6.38;;;;;;;18.40;55.65;100441.69;5031976;28;20708;-91
2021/08/19 04:16:57;;;;;;;8.50;6.60;;;;;;;18.40;56.08;100449.66;5031971;28;20030;-92
2021/08/19 04:19:23;;;;;;;6.45;5.50;;;;;;;18.40;55.85;100439.00;5031994;28;20136;-93
2021/08/19 04:21:49;;;;;;;11.05;6.53;;;;;;;18.37;55.88;100434.84;5032076;28;20026;-93
2021/08/19 04:24:14;;;;;;;8.52;6.65;;;;;;;18.44;56.17;100448.34;5031719;28;20026;-93
2021/08/19 04:26:40;;;;;;;8.27;6.75;;;;;;;18.47;56.98;100455.22;5031843;28;20086;-92
2021/08/19 04:29:05;;;;;;;8.48;6.70;;;;;;;18.33;55.74;100443.31;5031970;28;20391;-92
2021/08/19 04:31:31;;;;;;;7.65;6.60;;;;;;;18.36;55.37;100448.28;5032258;28;20109;-92
2021/08/19 04:33:57;;;;;;;7.65;6.50;;;;;;;18.44;55.84;100445.69;5030597;28;20105;-93
2021/08/19 04:36:23;;;;;;;6.75;6.05;;;;;;;18.30;56.06;100439.09;5033785;28;20025;-92
2021/08/19 04:38:48;;;;;;;7.30;6.50;;;;;;;18.36;56.47;100442.97;5034751;28;20021;-92
2021/08/19 04:41:13;;;;;;;8.00;7.07;;;;;;;18.36;55.92;100442.97;5036037;28;20030;-92
2021/08/19 04:43:39;;;;;;;9.48;7.45;;;;;;;18.37;56.54;100449.97;5036000;28;20053;-92
2021/08/19 04:46:04;;;;;;;9.48;7.20;;;;;;;18.22;56.49;100436.38;5035843;28;20036;-93
2021/08/19 04:48:29;;;;;;;8.68;7.10;;;;;;;18.31;56.01;100443.44;5035509;28;20387;-91
2021/08/19 04:50:55;;;;;;;8.93;6.70;;;;;;;18.24;56.38;100439.72;5035681;28;20025;-93
2021/08/19 04:53:20;;;;;;;9.20;7.32;;;;;;;18.20;56.78;100433.88;5035596;28;20568;-93
2021/08/19 04:55:46;;;;;;;8.25;6.88;;;;;;;18.23;56.81;100438.91;5035366;28;20025;-92
2021/08/19 04:58:11;;;;;;;7.75;6.63;;;;;;;18.24;57.30;100439.72;5035594;28;20553;-92
2021/08/19 05:00:37;;;;;;;11.07;7.45;;;;;;;18.26;57.40;100436.91;5035487;28;20116;-92
2021/08/19 05:03:02;;;;;;;7.93;7.05;;;;;;;18.28;57.59;100445.56;5035441;28;20109;-92
2021/08/19 05:05:27;;;;;;;8.63;7.63;;;;;;;18.23;57.67;100441.56;5035523;28;20517;-92
2021/08/19 05:07:53;;;;;;;7.05;6.20;;;;;;;18.22;57.38;100442.53;5034269;28;20057;-93
2021/08/19 05:10:18;;;;;;;8.90;7.65;;;;;;;18.24;57.51;100440.53;5035124;28;20049;-92
2021/08/19 05:12:43;;;;;;;9.15;7.80;;;;;;;18.24;58.05;100445.88;5035198;28;20021;-92
2021/08/19 05:15:10;;;;;;;8.10;6.95;;;;;;;18.26;57.65;100431.59;5033950;28;20096;-92
2021/08/19 05:17:35;;;;;;;8.70;7.40;;;;;;;18.24;57.60;100437.88;5035005;28;20439;-93
2021/08/19 05:20:00;;;;;;;9.57;7.35;;;;;;;17.92;58.44;100435.78;5035090;28;20109;-93
2021/08/19 05:22:26;;;;;;;10.30;8.10;;;;;;;18.03;58.19;100434.75;5033962;28;20491;-93
2021/08/19 05:24:51;;;;;;;8.52;7.30;;;;;;;18.08;58.16;100432.44;5034795;28;20033;-92
2021/08/19 05:27:17;;;;;;;8.07;7.20;;;;;;;18.12;58.47;100430.31;5033852;28;20021;-92
2021/08/19 05:29:42;;;;;;;9.73;8.27;;;;;;;18.08;58.80;100429.78;5034952;28;20064;-92
2021/08/19 05:32:08;;;;;;;10.23;9.15;;;;;;;17.98;58.51;100429.03;5034916;28;20048;-92
2021/08/19 05:34:33;;;;;;;12.35;8.40;;;;;;;17.90;59.15;100434.28;5034770;28;20064;-92
2021/08/19 05:36:58;;;;;;;9.88;8.43;;;;;;;17.96;59.29;100442.47;5034764;28;20132;-92
2021/08/19 05:39:24;;;;;;;11.13;8.38;;;;;;;18.05;58.74;100443.41;5034937;28;20454;-93
2021/08/19 05:41:49;;;;;;;11.45;8.93;;;;;;;18.02;59.30;100439.19;5034645;28;20132;-91
2021/08/19 05:44:14;;;;;;;10.25;7.88;;;;;;;17.91;59.37;100435.94;5034700;28;20022;-92
2021/08/19 05:46:40;;;;;;;9.15;7.95;;;;;;;17.94;58.92;100435.63;5034666;28;20029;-92
2021/08/19 05:49:07;;;;;;;9.55;7.60;;;;;;;17.97;59.10;100440.63;5034611;28;20076;-92
2021/08/19 05:51:32;;;;;;;11.05;8.48;;;;;;;17.92;59.70;100440.28;5034605;28;20030;-93
2021/08/19 05:53:58;;;;;;;9.65;8.30;;;;;;;17.96;59.65;100442.47;5034565;28;20037;-93
2021/08/19 05:56:23;;;;;;;10.50;7.50;;;;;;;18.00;59.39;100450.97;5033450;28;20502;-92
2021/08/19 05:58:48;;;;;;;11.80;7.47;;;;;;;17.90;59.00;100440.41;5034545;28;20104;-92
2021/08/19 06:01:14;;;;;;;9.75;7.30;;;;;;;17.84;59.83;100443.69;5034366;28;20025;-93
2021/08/19 06:03:39;;;;;;;8.52;6.78;;;;;;;17.73;60.32;100447.38;5034509;28;20079;-92
2021/08/19 06:06:05;;;;;;;8.07;7.03;;;;;;;17.80;60.13;100442.28;5034406;28;20021;-91
2021/08/19 06:08:30;;;;;;;8.68;7.55;;;;;;;17.96;59.72;100438.97;5034157;28;20108;-92
2021/08/19 06:10:55;;;;;;;8.65;7.75;;;;;;;17.90;59.81;100447.56;5034317;28;20065;-92
2021/08/19 06:13:20;;;;;;;10.23;7.57;;;;;;;18.07;58.91;100433.44;5033989;28;20108;-92
2021/08/19 06:15:46;;;;;;;9.50;7.70;;;;;;;17.92;60.19;100432.31;5034090;28;20057;-93
2021/08/19 06:18:12;;;;;;;9.13;7.40;;;;;;;17.92;60.40;100441.09;5032847;28;20030;-93
2021/08/19 06:20:37;;;;;;;9.40;7.85;;;;;;;17.99;60.42;100436.00;5034490;28;20029;-91
2021/08/19 06:23:06;;;;;;;11.57;7.88;;;;;;;18.08;60.33;100440.41;5034412;28;20029;-92
2021/08/19 06:25:33;;;;;;;10.07;7.75;;;;;;;18.19;60.15;100442.03;5033811;28;20383;-93
2021/08/19 06:27:58;;;;;;;11.35;8.63;;;;;;;18.25;60.11;100430.78;5034046;28;20029;-92
2021/08/19 06:30:23;;;;;;;10.75;7.60;;;;;;;18.38;60.22;100443.66;5033973;28;20025;-92
2021/08/19 06:32:49;;;;;;;11.30;7.53;;;;;;;18.39;59.04;100438.19;5033784;28;20031;-92
2021/08/19 06:35:14;;;;;;;10.00;7.80;;;;;;;18.54;58.73;100443.81;5033602;28;20060;-91
2021/08/19 06:37:40;;;;;;;11.82;7.65;;;;;;;18.72;58.55;100442.91;5032199;28;20029;-92
2021/08/19 06:40:06;;;;;;;10.15;7.75;;;;;;;18.90;58.11;100440.22;5033669;28;20060;-93
2021/08/19 06:42:32;;;;;;;9.05;7.75;;;;;;;19.28;57.52;100438.91;5033700;28;20025;-93
2021/08/19 06:44:57;;;;;;;9.68;7.10;;;;;;;19.65;56.33;100445.72;5033674;28;20032;-93
2021/08/19 06:47:23;;;;;;;8.60;7.35;;;;;;;19.70;55.50;100437.22;5033435;28;20021;-92
2021/08/19 06:49:48;;;;;;;8.13;7.22;;;;;;;19.84;55.24;100449.09;5033510;28;20028;-93
2021/08/19 06:52:13;;;;;;;8.77;6.80;;;;;;;20.14;54.07;100443.16;5033542;28;20459;-92
2021/08/19 06:54:39;;;;;;;9.07;6.40;;;;;;;20.49;53.43;100446.47;5033134;28;20411;-93
2021/08/19 06:57:04;;;;;;;13.57;7.35;;;;;;;21.13;51.41;100451.03;5033660;28;20021;-93
2021/08/19 06:59:30;;;;;;;8.48;6.80;;;;;;;21.34;50.76;100442.47;5033090;28;20025;-93
2021/08/19 07:01:55;;;;;;;9.63;6.60;;;;;;;21.25;50.60;100439.00;5033398;28;20374;-93
2021/08/19 07:04:21;;;;;;;9.55;7.05;;;;;;;21.20;50.51;100441.34;5033294;28;20068;-92
2021/08/19 07:06:46;;;;;;;8.10;6.80;;;;;;;21.23;50.49;100440.16;5033129;28;20018;-92
2021/08/19 07:09:14;;;;;;;10.27;7.10;;;;;;;21.68;49.94;100442.16;5033158;28;20100;-92
2021/08/19 07:11:39;;;;;;;8.38;6.03;;;;;;;22.50;48.70;100433.53;5033138;28;20036;-93
2021/08/19 07:14:06;;;;;;;6.68;5.55;;;;;;;23.90;44.69;100437.28;5031666;28;20041;-93
2021/08/19 07:16:31;;;;;;;6.70;5.70;;;;;;;24.15;45.16;100438.56;5036581;28;20035;-93
2021/08/19 07:18:57;;;;;;;8.88;6.45;;;;;;;23.78;45.25;100441.50;5032841;28;20476;-93
2021/08/19 07:21:22;;;;;;;9.00;5.75;;;;;;;23.58;46.16;100443.88;5032936;28;20030;-92
2021/08/19 07:23:47;;;;;;;8.60;5.43;;;;;;;23.44;46.43;100440.22;5032883;28;20433;-93
2021/08/19 07:26:13;;;;;;;10.88;6.57;;;;;;;23.18;46.99;100433.50;5032799;28;20065;-93
2021/08/19 07:28:38;;;;;;;9.13;6.65;;;;;;;23.05;46.63;100430.69;5031639;28;20033;-93
2021/08/19 07:31:04;;;;;;;8.48;6.22;;;;;;;22.99;47.50;100436.75;5032986;28;20527;-93
2021/08/19 07:33:29;;;;;;;8.38;6.22;;;;;;;22.92;47.51;100429.44;5032793;28;20554;-93
2021/08/19 07:35:55;;;;;;;8.13;7.32;;;;;;;22.76;47.43;100432.28;5032422;28;20029;-92
2021/08/19 07:38:20;;;;;;;6.82;5.70;;;;;;;22.81;47.79;100437.94;5032579;28;20033;-92
2021/08/19 07:40:48;;;;;;;6.75;6.03;;;;;;;22.92;47.60;100442.81;5032578;28;20030;-93
2021/08/19 07:43:13;;;;;;;7.22;6.53;;;;;;;23.00;46.87;100441.06;5031330;28;20025;-93
2021/08/19 07:45:38;;;;;;;8.23;6.90;;;;;;;23.11;46.51;100437.97;5032246;28;20531;-93
2021/08/19 07:48:14;;;;;;;7.72;6.20;;;;;;;23.20;46.13;100433.34;5032598;28;20029;-93
2021/08/19 07:50:41;;;;;;;9.75;7.05;;;;;;;23.04;46.64;100434.34;5030949;28;20116;-93
2021/08/19 07:53:06;;;;;;;10.73;6.82;;;;;;;23.14;46.23;100434.91;5032271;28;20061;-93
2021/08/19 07:55:32;;;;;;;9.40;6.13;;;;;;;23.10;46.41;100434.44;5032383;28;20053;-93
2021/08/19 07:58:00;;;;;;;6.07;5.47;;;;;;;23.18;45.93;100438.88;5030949;28;20079;-92
2021/08/19 08:00:28;;;;;;;9.68;5.60;;;;;;;23.19;45.99;100427.16;5030929;28;20480;-92
2021/08/19 08:02:54;;;;;;;7.13;5.43;;;;;;;23.09;45.87;100424.75;5032644;28;20367;-92
2021/08/19 08:05:24;;;;;;;7.63;5.05;;;;;;;23.24;44.89;100431.94;5032171;28;20049;-93
2021/08/19 08:07:51;;;;;;;8.48;5.50;;;;;;;23.33;45.68;100438.88;5032168;28;20024;-92
2021/08/19 08:10:17;;;;;;;7.13;4.82;;;;;;;23.26;45.49;100428.09;5031371;28;20070;-93
2021/08/19 08:12:42;;;;;;;7.10;4.40;;;;;;;23.23;46.11;100423.09;5031985;28;20021;-93
2021/08/19 08:15:08;;;;;;;6.07;4.65;;;;;;;23.34;45.87;100429.78;5031864;28;20380;-93
2021/08/19 08:17:35;;;;;;;5.38;4.28;;;;;;;23.23;46.20;100428.44;5032005;28;20121;-92
2021/08/19 08:20:01;;;;;;;7.28;4.75;;;;;;;23.25;46.60;100431.75;5030827;28;20541;-93
2021/08/19 08:22:27;;;;;;;6.28;4.93;;;;;;;23.54;45.50;100424.69;5032047;28;20064;-93
2021/08/19 08:24:52;;;;;;;5.80;3.72;;;;;;;24.01;44.74;100426.03;5032219;28;20057;-93
2021/08/19 08:27:18;;;;;;;7.38;3.50;;;;;;;24.02;43.92;100427.69;5030498;28;20025;-93
2021/08/19 08:29:43;;;;;;;5.55;3.53;;;;;;;24.07;44.67;100419.91;5031938;28;20419;-93
2021/08/19 08:32:10;;;;;;;4.68;2.92;;;;;;;24.17;43.93;100421.41;5032106;28;20014;-93
2021/08/19 08:34:37;;;;;;;5.53;3.55;;;;;;;23.87;45.33;100426.91;5031921;28;20598;-94
2021/08/19 08:37:04;;;;;;;3.90;2.97;;;;;;;23.81;45.09;100430.38;5031624;28;20475;-93
2021/08/19 08:39:31;;;;;;;4.35;3.28;;;;;;;23.75;45.42;100430.06;5031767;28;20539;-93
2021/08/19 08:41:57;;;;;;;4.45;3.20;;;;;;;23.87;45.02;100424.25;5031894;28;20017;-92
2021/08/19 08:44:28;;;;;;;5.00;2.72;;;;;;;23.85;45.10;100415.56;5030394;28;20022;-93
2021/08/19 08:46:55;;;;;;;4.53;2.67;;;;;;;24.29;43.99;100419.88;5031487;28;20026;-93
2021/08/19 08:49:22;;;;;;;7.75;3.30;;;;;;;24.70;44.93;100421.84;5031623;28;20018;-93
2021/08/19 08:51:51;;;;;;;3.67;2.83;;;;;;;25.13;42.58;100429.75;5031633;28;20026;-93
2021/08/19 08:54:17;;;;;;;5.28;3.33;;;;;;;25.02;42.42;100417.72;5031814;28;20032;-93
2021/08/19 08:56:43;;;;;;;4.28;2.65;;;;;;;25.27;41.96;100414.56;5030244;28;20021;-93
2021/08/19 08:59:08;;;;;;;4.32;2.55;;;;;;;25.27;41.69;100420.75;5030530;28;20017;-93
2021/08/19 09:01:34;;;;;;;7.18;2.13;;;;;;;24.83;42.18;100413.91;5030366;28;20079;-94
2021/08/19 09:03:59;;;;;;;3.47;2.55;;;;;;;24.94;42.74;100421.41;5030452;28;20458;-92
2021/08/19 09:06:58;;;;;;;7.80;2.03;;;;;;;25.12;42.48;100422.75;5031585;28;20026;-94
2021/08/19 09:09:26;;;;;;;5.25;2.33;;;;;;;24.67;44.37;100416.91;5031027;28;20037;-93
2021/08/19 09:11:56;;;;;;;6.88;2.67;;;;;;;24.71;43.98;100416.31;5031609;28;20044;-92
2021/08/19 09:14:24;;;;;;;4.22;2.38;;;;;;;24.19;45.66;100416.69;5031522;28;20115;-93
2021/08/19 09:16:50;;;;;;;3.20;2.20;;;;;;;23.99;46.00;100414.66;5030143;28;20028;-93
2021/08/19 09:19:17;;;;;;;4.65;2.38;;;;;;;24.00;45.95;100426.22;5030278;28;20034;-93
2021/08/19 09:21:51;;;;;;;2.85;2.10;;;;;;;24.24;45.23;100416.94;5032100;28;20144;-92
2021/08/19 09:24:21;;;;;;;3.90;2.28;;;;;;;24.41;44.06;100412.13;5034997;28;20022;-94
2021/08/19 09:26:48;;;;;;;5.65;2.60;;;;;;;24.49;44.12;100420.06;5035135;28;20017;-93
2021/08/19 09:29:30;;;;;;;5.13;2.47;;;;;;;24.76;43.81;100418.38;5035151;28;20075;-92
2021/08/19 09:32:17;;;;;;;4.40;2.30;;;;;;;24.81;44.00;100399.84;5034944;28;20049;-93
2021/08/19 09:34:48;;;;;;;4.15;1.80;;;;;;;24.89;43.55;100415.78;5034867;28;20075;-94
2021/08/19 09:37:17;;;;;;;6.68;2.03;;;;;;;24.82;43.90;100417.63;5034837;28;20021;-94
2021/08/19 09:39:45;;;;;;;4.43;1.85;;;;;;;24.76;43.87;100418.38;5035015;28;20033;-93
2021/08/19 09:42:12;;;;;;;19.50;3.30;;;;;;;24.87;44.01;100412.47;5033559;28;20502;-94
2021/08/19 09:44:45;;;;;;;5.03;1.67;;;;;;;24.71;44.58;100412.78;5035114;28;20103;-92
2021/08/19 09:47:33;;;;;;;4.05;1.95;;;;;;;24.77;45.42;100419.22;5033513;28;20030;-92
2021/08/19 09:50:16;;;;;;;3.50;2.15;;;;;;;24.48;45.96;100416.50;5034776;28;20025;-93
2021/08/19 09:52:43;;;;;;;4.28;1.70;;;;;;;24.57;46.69;100419.09;5034524;28;20028;-94
2021/08/19 09:55:27;;;;;;;5.45;1.73;;;;;;;24.46;46.68;100413.19;5034718;28;20037;-93
2021/08/19 09:57:54;;;;;;;4.90;1.65;;;;;;;24.28;47.22;100415.53;5033306;28;20568;-93
2021/08/19 10:00:31;;;;;;;2.10;1.40;;;;;;;24.69;45.40;100417.53;5034630;28;20033;-92
2021/08/19 10:02:57;;;;;;;4.05;1.60;;;;;;;24.46;46.14;100415.88;5033294;28;20025;-94
2021/08/19 10:05:23;;;;;;;3.00;1.67;;;;;;;24.32;45.93;100408.75;5034420;28;20025;-94
2021/08/19 10:07:49;;;;;;;5.53;2.30;;;;;;;24.20;47.85;100421.06;5034210;28;20029;-93
2021/08/19 10:10:16;;;;;;;4.43;1.77;;;;;;;24.35;47.50;100414.56;5034321;28;20438;-93
2021/08/19 10:12:43;;;;;;;3.33;1.50;;;;;;;24.43;47.25;100418.97;5034274;28;20018;-93
2021/08/19 10:15:09;;;;;;;3.58;1.80;;;;;;;24.46;47.60;100421.25;5032869;28;20159;-93
2021/08/19 10:17:37;;;;;;;2.85;1.40;;;;;;;24.23;48.66;100416.13;5032831;28;20029;-94
2021/08/19 10:20:10;;;;;;;2.58;2.08;;;;;;;24.19;49.94;100416.69;5033950;28;20116;-93
2021/08/19 10:22:37;;;;;;;3.25;2.25;;;;;;;24.05;50.80;100411.22;5032799;28;20026;-93
2021/08/19 10:25:05;;;;;;;4.15;2.10;;;;;;;24.04;51.13;100406.88;5032460;28;20018;-93
2021/08/19 10:27:32;;;;;;;4.20;2.60;;;;;;;23.98;50.96;100396.91;5034072;28;20021;-92
2021/08/19 10:30:00;;;;;;;5.18;2.60;;;;;;;23.74;51.18;100404.28;5033768;28;20017;-93
2021/08/19 10:32:39;;;;;;;4.40;2.05;;;;;;;24.10;50.48;100403.41;5033862;28;20472;-93
2021/08/19 10:35:14;;;;;;;2.85;2.22;;;;;;;23.89;51.15;100400.75;5032858;28;20036;-94
2021/08/19 10:37:45;;;;;;;3.75;2.10;;;;;;;23.83;52.32;100390.78;5033721;28;20037;-92
2021/08/19 10:40:23;;;;;;;5.35;2.28;;;;;;;23.54;52.83;100393.38;5032708;28;20061;-94
2021/08/19 10:42:51;;;;;;;8.77;2.30;;;;;;;23.54;52.83;100393.38;5033773;28;20032;-93
2021/08/19 10:45:29;;;;;;;8.15;2.30;;;;;;;23.82;51.77;100389.16;5033561;28;20369;-95
2021/08/19 10:48:14;;;;;;;7.63;2.20;;;;;;;23.90;50.76;100384.47;5032552;28;20033;-93
2021/08/19 10:50:42;;;;;;;5.60;2.40;;;;;;;23.51;52.71;100387.53;5032272;28;20017;-93
2021/08/19 10:53:16;;;;;;;4.75;2.13;;;;;;;23.73;52.31;100389.22;5033467;28;20488;-93
2021/08/19 10:55:47;;;;;;;3.35;2.17;;;;;;;23.75;51.94;100379.13;5033558;28;20033;-93
2021/08/19 10:58:27;;;;;;;7.60;2.08;;;;;;;23.69;52.10;100379.06;5032210;28;20025;-93
2021/08/19 11:00:58;;;;;;;7.68;2.88;;;;;;;23.86;51.55;100383.19;5033326;28;20111;-94
2021/08/19 11:03:36;;;;;;;4.55;1.55;;;;;;;23.92;51.76;100378.91;5033364;28;20021;-93
2021/08/19 11:06:04;;;;;;;3.97;2.08;;;;;;;23.30;53.70;100375.78;5033285;28;20033;-93
2021/08/19 11:09:02;;;;;;;2.75;1.92;;;;;;;23.72;52.23;100378.72;5031848;28;20476;-93
2021/08/19 11:11:27;;;;;;;5.90;2.60;;;;;;;23.51;53.26;100388.38;5030639;28;20041;-93
2021/08/19 11:14:14;;;;;;;4.63;2.08;;;;;;;23.79;52.88;100378.78;5033087;28;20033;-93
2021/08/19 11:16:52;;;;;;;5.40;2.33;;;;;;;23.82;52.75;100378.41;5031665;28;20480;-93
2021/08/19 11:19:22;;;;;;;2.45;1.80;;;;;;;24.02;52.25;100378.59;5031914;28;20090;-93
2021/08/19 11:21:50;;;;;;;3.75;2.50;;;;;;;23.80;52.38;100377.78;5031796;28;20028;-93